Time;durP1;ratioP1;P1;durP2;ratioP2;P2;SDS_P1;SDS_P2;PMS_P1;PMS_P2;Temp;Humidity;BMP_temperature;BMP_pressure;BME280_temperature;BME280_humidity;BME280_pressure;Samples;Min_cycle;Max_cycle;Signal;HPM_P1;HPM_P2
2021/07/07 00:02:31;;;;;;;9.03;4.90;;;;;;;20.19;62.26;99922.24;2228190;79;33042;-59
2021/07/07 00:05:33;;;;;;;7.90;4.75;;;;;;;20.17;62.39;99917.97;2229562;79;29062;-59
2021/07/07 00:08:35;;;;;;;6.80;4.50;;;;;;;20.13;62.63;99911.98;2230281;79;27600;-61
2021/07/07 00:11:39;;;;;;;10.45;5.10;;;;;;;20.09;62.71;99917.34;2229652;79;29072;-62
2021/07/07 00:14:44;;;;;;;8.98;4.75;;;;;;;20.06;62.62;99920.88;2227743;79;32394;-60
2021/07/07 00:17:47;;;;;;;6.20;4.87;;;;;;;20.03;62.68;99921.52;2227165;79;34381;-59
2021/07/07 00:23:53;;;;;;;7.17;5.15;;;;;;;19.95;63.08;99930.05;2222940;80;27655;-65
2021/07/07 00:26:55;;;;;;;8.78;5.67;;;;;;;19.92;63.15;99907.23;2222837;80;29178;-63
2021/07/07 00:29:59;;;;;;;8.23;5.12;;;;;;;19.89;63.41;99918.75;2222651;80;31313;-65
2021/07/07 00:33:01;;;;;;;7.15;5.47;;;;;;;19.88;63.24;99922.98;2223029;80;32950;-64
2021/07/07 00:36:05;;;;;;;6.67;4.83;;;;;;;19.85;63.43;99929.55;2222675;80;30356;-65
2021/07/07 00:39:07;;;;;;;7.55;4.70;;;;;;;19.84;63.35;99929.68;2223283;80;27675;-64
2021/07/07 00:42:09;;;;;;;5.53;4.60;;;;;;;19.83;63.44;99936.12;2223082;80;29476;-65
2021/07/07 00:45:13;;;;;;;7.62;4.75;;;;;;;19.79;63.32;99928.77;2224732;80;32194;-65
2021/07/07 00:48:15;;;;;;;8.03;4.40;;;;;;;19.78;63.52;99933.84;2225058;80;33756;-66
2021/07/07 00:51:19;;;;;;;9.73;4.55;;;;;;;19.76;63.70;99933.64;2224744;80;30224;-66
2021/07/07 00:54:20;;;;;;;11.73;4.72;;;;;;;19.73;63.69;99937.48;2225164;79;27622;-66
2021/07/07 00:57:27;;;;;;;7.30;4.08;;;;;;;19.71;63.72;99936.28;2225072;79;29477;-66
2021/07/07 01:00:29;;;;;;;9.45;5.12;;;;;;;19.67;63.80;99938.08;2224981;80;31943;-66
2021/07/07 01:03:32;;;;;;;7.55;5.20;;;;;;;19.62;64.00;99948.52;2224624;80;34151;-66
2021/07/07 01:06:34;;;;;;;5.30;4.17;;;;;;;19.58;64.07;99943.88;2223030;80;29092;-65
2021/07/07 01:09:36;;;;;;;8.58;5.12;;;;;;;19.55;64.11;99944.16;2223479;80;27652;-63
2021/07/07 01:12:38;;;;;;;5.60;4.35;;;;;;;19.51;63.99;99942.23;2223167;80;29493;-64
2021/07/07 01:15:43;;;;;;;5.22;4.45;;;;;;;19.49;64.06;99936.09;2222758;80;32371;-66
2021/07/07 01:18:45;;;;;;;5.45;4.42;;;;;;;19.46;64.07;99941.80;2222960;80;33036;-65
2021/07/07 01:21:48;;;;;;;5.95;4.10;;;;;;;19.44;64.40;99954.15;2222601;79;29539;-65
2021/07/07 01:24:50;;;;;;;6.17;3.70;;;;;;;19.41;64.76;99948.16;2223139;80;27631;-65
2021/07/07 01:27:53;;;;;;;6.22;3.92;;;;;;;19.39;64.82;99956.94;2222689;80;29951;-65
2021/07/07 01:30:56;;;;;;;6.47;4.60;;;;;;;19.37;64.72;99961.66;2223127;80;31222;-65
2021/07/07 01:33:58;;;;;;;8.28;4.80;;;;;;;19.33;64.91;99958.38;2222592;80;33840;-63
2021/07/07 01:36:59;;;;;;;6.20;4.50;;;;;;;19.32;65.07;99955.30;2222946;80;29646;-65
2021/07/07 01:40:02;;;;;;;4.85;4.12;;;;;;;19.30;65.00;99950.50;2224105;80;27665;-65
2021/07/07 01:43:04;;;;;;;6.65;4.50;;;;;;;19.28;65.02;99957.92;2225395;80;29474;-66
2021/07/07 01:46:06;;;;;;;7.72;4.50;;;;;;;19.26;65.10;99960.80;2225274;79;32180;-67
2021/07/07 01:49:08;;;;;;;4.65;4.17;;;;;;;19.25;65.29;99965.02;2225244;79;34122;-66
2021/07/07 01:52:10;;;;;;;8.58;4.10;;;;;;;19.22;65.18;99955.28;2225240;80;30139;-66
2021/07/07 01:55:15;;;;;;;5.50;4.00;;;;;;;19.21;65.19;99956.28;2225464;80;27681;-62
2021/07/07 01:58:17;;;;;;;8.25;4.12;;;;;;;19.20;65.16;99955.92;2225600;80;28660;-64
2021/07/07 02:01:19;;;;;;;7.28;3.62;;;;;;;19.18;65.32;99949.80;2223412;80;32239;-65
2021/07/07 02:04:22;;;;;;;7.92;4.22;;;;;;;19.19;65.44;99938.42;2222420;80;33273;-63
2021/07/07 02:07:24;;;;;;;5.03;4.12;;;;;;;19.16;65.43;99945.48;2220157;79;29396;-63
2021/07/07 02:10:26;;;;;;;6.33;3.85;;;;;;;19.14;65.40;99947.00;2217565;80;27753;-64
2021/07/07 02:13:29;;;;;;;5.50;3.70;;;;;;;19.10;65.37;99946.43;2223092;80;28527;-64
2021/07/07 02:16:31;;;;;;;4.95;3.92;;;;;;;19.10;65.48;99955.05;2222840;80;31844;-63
2021/07/07 02:19:33;;;;;;;5.90;4.42;;;;;;;19.08;65.60;99962.48;2223198;80;34108;-64
2021/07/07 02:22:36;;;;;;;8.43;4.58;;;;;;;19.08;65.64;99955.20;2222858;80;29411;-64
2021/07/07 02:25:44;;;;;;;4.62;3.83;;;;;;;19.10;65.81;99961.36;2222845;80;27654;-61
2021/07/07 02:28:45;;;;;;;7.58;3.75;;;;;;;19.11;65.93;99973.06;2222888;80;29835;-66
2021/07/07 02:31:47;;;;;;;7.53;4.50;;;;;;;19.10;65.87;99992.59;2224749;80;31133;-64
2021/07/07 02:34:49;;;;;;;5.08;3.77;;;;;;;19.11;66.18;100004.30;2224865;80;34250;-66
2021/07/07 02:37:53;;;;;;;7.85;4.03;;;;;;;19.13;66.05;99996.36;2224901;79;30221;-64
2021/07/07 02:40:56;;;;;;;5.78;4.30;;;;;;;19.15;65.96;100004.86;2225185;80;36773;-63
2021/07/07 02:43:58;;;;;;;5.67;4.00;;;;;;;19.15;66.00;99989.45;2225009;80;28908;-59
2021/07/07 02:47:02;;;;;;;4.20;3.62;;;;;;;19.13;65.94;99997.72;2225219;79;32047;-62
2021/07/07 02:50:07;;;;;;;5.10;4.45;;;;;;;19.12;65.90;100011.44;2224929;80;33077;-59
2021/07/07 02:53:13;;;;;;;4.62;3.75;;;;;;;19.13;65.99;100013.16;2223209;80;29769;-65
2021/07/07 02:56:16;;;;;;;5.78;4.45;;;;;;;19.16;65.88;100012.89;2223353;80;27784;-65
2021/07/07 02:59:18;;;;;;;5.33;3.92;;;;;;;19.19;65.89;100022.12;2222940;80;29214;-60
2021/07/07 03:02:20;;;;;;;7.10;3.92;;;;;;;19.21;65.85;100026.05;2222812;80;32239;-59
2021/07/07 03:05:23;;;;;;;7.55;4.10;;;;;;;19.25;65.91;100022.06;2223006;80;34270;-64
2021/07/07 03:08:29;;;;;;;7.60;4.40;;;;;;;19.26;65.80;100008.84;2223189;80;28938;-62
2021/07/07 03:11:31;;;;;;;4.30;3.90;;;;;;;19.26;65.82;100008.84;2224414;80;27653;-61
2021/07/07 03:14:33;;;;;;;8.43;4.70;;;;;;;19.27;65.90;100023.63;2225403;80;28676;-65
2021/07/07 03:17:35;;;;;;;8.30;4.58;;;;;;;19.30;65.88;100040.13;2224835;79;31866;-59
2021/07/07 03:20:39;;;;;;;6.03;4.00;;;;;;;19.35;65.87;100050.60;2224546;79;34133;-62
2021/07/07 03:23:41;;;;;;;7.60;4.00;;;;;;;19.41;65.85;100047.31;2219580;78;29932;-66
2021/07/07 03:26:44;;;;;;;6.62;4.00;;;;;;;19.48;65.86;100040.81;2219776;80;27680;-65
2021/07/07 03:29:46;;;;;;;7.55;4.67;;;;;;;19.54;65.77;100036.19;2219668;80;28703;-64
2021/07/07 03:32:48;;;;;;;6.12;4.47;;;;;;;19.61;65.65;100029.17;2219376;80;31065;-65
2021/07/07 03:35:50;;;;;;;6.80;4.15;;;;;;;19.66;65.60;100032.33;2219722;80;32813;-66
2021/07/07 03:38:51;;;;;;;7.12;4.15;;;;;;;19.72;65.55;100043.13;2219270;80;29866;-66
2021/07/07 03:41:53;;;;;;;8.68;4.42;;;;;;;19.74;65.47;100035.21;2218923;80;28512;-64
2021/07/07 03:44:56;;;;;;;8.95;4.55;;;;;;;19.78;65.44;100042.56;2219274;80;29541;-64
2021/07/07 03:47:58;;;;;;;7.58;4.80;;;;;;;19.83;65.46;100038.94;2219314;80;31056;-65
2021/07/07 03:51:00;;;;;;;10.93;4.78;;;;;;;19.89;65.45;100043.81;2219056;80;33867;-65
2021/07/07 03:54:02;;;;;;;9.35;4.87;;;;;;;19.95;65.45;100041.53;2218540;80;30136;-65
2021/07/07 03:57:06;;;;;;;12.47;5.42;;;;;;;20.02;65.43;100053.56;2217559;80;27606;-64
2021/07/07 04:00:35;;;;;;;10.47;4.63;;;;;;;20.10;65.41;100060.48;2217875;80;28649;-65
2021/07/07 04:03:26;;;;;;;7.55;4.33;;;;;;;20.21;65.48;100065.41;2209389;80;28526;-66
2021/07/07 04:06:40;;;;;;;7.42;4.97;;;;;;;20.33;65.55;100071.91;2219106;80;33578;-64
2021/07/07 04:09:44;;;;;;;9.30;4.08;;;;;;;20.47;65.43;100073.33;2212084;80;27808;-65
2021/07/07 04:12:49;;;;;;;8.43;3.83;;;;;;;20.63;65.39;100073.22;2217410;80;27790;-65
2021/07/07 04:15:52;;;;;;;;;;;;;;;20.77;65.14;100075.98;2220314;80;28638;-64
2021/07/07 04:18:55;;;;;;;9.70;5.10;;;;;;;20.93;65.11;100083.54;2218938;80;31416;-65
2021/07/07 04:21:57;;;;;;;9.23;4.17;;;;;;;21.09;65.01;100086.48;2220704;79;34156;-63
2021/07/07 04:25:14;;;;;;;6.90;4.50;;;;;;;21.28;64.85;100088.77;2223615;80;29068;-72
2021/07/07 04:32:22;;;;;;;6.35;4.30;;;;;;;21.64;64.66;100101.64;1947352;86;27617;-73
2021/07/07 05:20:45;;;;;;;3.62;2.50;;;;;;;29.18;53.01;100092.84;1573119;110;27925;-70
2021/07/07 05:24:05;;;;;;;3.85;2.12;;;;;;;29.78;51.85;100090.03;1646776;108;28494;-67
2021/07/07 05:27:03;;;;;;;3.58;2.20;;;;;;;30.40;50.21;100092.18;1644875;107;27847;-72
2021/07/07 05:30:58;;;;;;;7.33;2.05;;;;;;;30.88;48.63;100088.88;1705161;103;28769;-67
2021/07/07 05:53:51;;;;;;;;;;;;;;;;;;;;;
2021/07/07 06:14:23;;;;;;;6.53;1.65;;;;;;;32.88;39.26;100144.34;1513942;112;27900;-69
2021/07/07 06:20:28;;;;;;;2.85;1.70;;;;;;;33.78;38.13;100140.66;1729380;96;27842;-69
2021/07/07 06:23:30;;;;;;;1.92;1.60;;;;;;;34.29;37.02;100143.73;1821551;96;33852;-69
2021/07/07 06:26:33;;;;;;;10.28;1.95;;;;;;;34.46;36.41;100135.05;1938109;86;29930;-67
2021/07/07 06:29:36;;;;;;;4.28;1.60;;;;;;;34.73;36.06;100138.75;2056753;86;27698;-63
2021/07/07 06:32:39;;;;;;;4.70;1.62;;;;;;;34.83;34.63;100133.42;2056060;86;29034;-63
2021/07/07 06:35:43;;;;;;;9.48;1.98;;;;;;;35.05;35.43;100131.46;2013572;88;31033;-68
2021/07/07 06:38:45;;;;;;;6.72;1.75;;;;;;;35.25;34.19;100133.84;2023517;88;32949;-68
2021/07/07 06:41:47;;;;;;;5.67;1.98;;;;;;;35.43;34.60;100129.22;2025223;86;29234;-64
2021/07/07 06:44:49;;;;;;;4.45;1.82;;;;;;;35.71;34.33;100131.23;2033892;84;27810;-68
2021/07/07 06:47:51;;;;;;;2.83;1.95;;;;;;;35.63;33.68;100128.84;2069494;86;28089;-70
2021/07/07 06:50:54;;;;;;;3.35;1.90;;;;;;;35.28;33.26;100127.80;2078285;84;32295;-67
2021/07/07 06:53:56;;;;;;;5.28;2.42;;;;;;;35.24;33.35;100120.18;2104337;84;33763;-69
2021/07/07 06:56:58;;;;;;;6.22;2.10;;;;;;;35.31;33.05;100121.44;2123150;82;30244;-70
2021/07/07 07:00:02;;;;;;;2.37;2.00;;;;;;;35.44;32.69;100122.05;2197867;81;27695;-70
2021/07/07 07:03:04;;;;;;;4.20;2.00;;;;;;;35.42;33.16;100121.42;2171206;81;28784;-75
2021/07/07 07:06:06;;;;;;;4.75;2.22;;;;;;;35.08;32.96;100124.58;2172050;82;30479;-65
2021/07/07 07:09:08;;;;;;;1.90;1.80;;;;;;;34.67;32.87;100122.48;2171708;82;33014;-67
2021/07/07 07:12:10;;;;;;;2.87;1.80;;;;;;;34.77;32.83;100131.63;2152207;81;30217;-66
2021/07/07 07:15:15;;;;;;;2.98;2.55;;;;;;;35.01;33.32;100123.84;2144029;83;27647;-70
2021/07/07 07:18:17;;;;;;;3.08;2.17;;;;;;;35.35;33.37;100132.39;2143793;82;28711;-69
2021/07/07 07:21:19;;;;;;;3.90;2.00;;;;;;;35.65;32.99;100144.78;2154727;81;31883;-69
2021/07/07 07:24:21;;;;;;;2.65;2.15;;;;;;;35.88;33.06;100141.05;2174430;81;33204;-67
2021/07/07 07:27:23;;;;;;;8.30;2.08;;;;;;;36.10;32.81;100157.66;2170533;81;30211;-62
2021/07/07 07:30:27;;;;;;;4.55;2.10;;;;;;;36.26;32.25;100151.80;2144825;81;28261;-63
2021/07/07 07:33:29;;;;;;;5.28;2.10;;;;;;;36.40;32.35;100150.94;2162222;81;28849;-61
2021/07/07 07:36:31;;;;;;;2.95;1.87;;;;;;;36.48;31.92;100147.78;2175065;81;31053;-61
2021/07/07 07:39:43;;;;;;;2.08;1.98;;;;;;;36.59;31.16;100149.63;2172869;81;33333;-61
2021/07/07 07:42:45;;;;;;;1.87;1.72;;;;;;;36.47;31.07;100148.31;2171687;82;30333;-61
2021/07/07 07:45:54;;;;;;;5.00;2.10;;;;;;;36.52;30.57;100145.31;2158911;81;27793;-61
2021/07/07 07:48:58;;;;;;;5.67;2.10;;;;;;;36.57;31.17;100144.02;2082443;83;28673;-62
2021/07/07 07:52:00;;;;;;;3.52;1.60;;;;;;;36.78;31.05;100143.80;2057730;86;31031;-62
2021/07/07 07:55:04;;;;;;;7.22;2.12;;;;;;;36.93;30.74;100141.27;2057557;86;34266;-60
2021/07/07 07:58:06;;;;;;;4.35;2.37;;;;;;;36.83;30.51;100131.28;2070662;83;29906;-63
2021/07/07 08:01:08;;;;;;;3.92;2.02;;;;;;;36.80;30.08;100132.66;2110876;83;27642;-60
2021/07/07 08:04:10;;;;;;;1.95;1.67;;;;;;;36.78;30.15;100132.63;2116045;83;29458;-60
2021/07/07 08:07:12;;;;;;;5.50;1.98;;;;;;;36.85;30.44;100131.05;2115617;82;31321;-60
2021/07/07 08:10:18;;;;;;;8.48;2.72;;;;;;;36.99;30.21;100138.00;2057968;86;34123;-62
2021/07/07 08:13:21;;;;;;;5.05;2.00;;;;;;;37.05;29.94;100138.38;2057904;86;29045;-60
2021/07/07 08:16:23;;;;;;;2.80;2.00;;;;;;;37.05;29.75;100141.17;2057975;86;27693;-60
2021/07/07 08:19:25;;;;;;;4.17;2.05;;;;;;;36.88;29.69;100143.94;2101529;83;29350;-60
2021/07/07 08:22:27;;;;;;;5.65;2.15;;;;;;;36.84;29.62;100141.36;2116975;84;31511;-61
2021/07/07 08:25:29;;;;;;;2.12;2.00;;;;;;;36.79;30.04;100140.73;2116532;83;33893;-60
2021/07/07 08:28:31;;;;;;;3.40;1.87;;;;;;;36.80;29.75;100141.03;2092689;83;30231;-61
2021/07/07 08:31:33;;;;;;;2.33;1.95;;;;;;;36.67;29.25;100143.31;2057651;86;27699;-61
2021/07/07 08:34:36;;;;;;;3.25;2.00;;;;;;;36.30;29.61;100139.05;2057562;86;29920;-61
2021/07/07 08:37:40;;;;;;;5.17;2.75;;;;;;;36.16;29.70;100131.53;2064215;82;31912;-72
2021/07/07 08:40:42;;;;;;;4.75;2.00;;;;;;;35.79;29.92;100120.23;2116725;84;33828;-72
2021/07/07 08:43:45;;;;;;;3.02;1.80;;;;;;;35.82;30.43;100116.13;2116853;83;29086;-69
2021/07/07 08:46:49;;;;;;;2.25;2.02;;;;;;;35.88;30.33;100113.70;2176294;80;27623;-62
2021/07/07 08:49:51;;;;;;;3.47;2.02;;;;;;;35.85;30.16;100118.38;2136532;80;28130;-60
2021/07/07 08:52:56;;;;;;;3.67;2.12;;;;;;;35.83;30.45;100117.78;2121763;82;32271;-70
2021/07/07 08:55:58;;;;;;;5.42;2.30;;;;;;;35.86;30.62;100115.36;2122046;83;33759;-71
2021/07/07 08:59:00;;;;;;;3.17;2.12;;;;;;;35.79;30.71;100120.80;2165411;80;30156;-68
2021/07/07 09:02:11;;;;;;;7.28;2.62;;;;;;;35.65;30.44;100118.30;2193492;80;28324;-73
2021/07/07 09:05:12;;;;;;;4.78;2.35;;;;;;;35.40;30.46;100126.95;2158153;81;29424;-70
2021/07/07 09:08:33;;;;;;;6.80;1.98;;;;;;;35.15;30.91;100116.92;2150415;80;32241;-68
2021/07/07 09:11:37;;;;;;;3.60;2.00;;;;;;;35.14;30.88;100125.84;2130481;80;47490;-67
2021/07/07 09:14:39;;;;;;;3.70;2.00;;;;;;;35.32;31.25;100125.92;2158623;81;30308;-60
2021/07/07 09:17:52;;;;;;;2.45;2.12;;;;;;;35.22;31.23;100121.83;2158909;82;27588;-60
2021/07/07 09:20:51;;;;;;;4.67;2.27;;;;;;;35.19;31.44;100128.41;2158363;82;28744;-68
2021/07/07 09:23:55;;;;;;;4.35;2.10;;;;;;;35.09;31.81;100127.63;2159196;82;30659;-71
2021/07/07 09:27:04;;;;;;;4.97;2.17;;;;;;;35.02;31.89;100138.06;2177176;80;33635;-70
2021/07/07 09:30:11;;;;;;;3.80;1.80;;;;;;;34.86;31.57;100138.20;2158835;82;29832;-64
2021/07/07 09:33:13;;;;;;;3.83;2.52;;;;;;;34.71;32.00;100140.92;2159290;82;27613;-60
2021/07/07 09:36:24;;;;;;;2.58;1.95;;;;;;;34.67;32.13;100143.88;2135126;80;29035;-65
2021/07/07 09:39:26;;;;;;;2.30;2.10;;;;;;;34.57;32.52;100147.28;2122056;82;31084;-62
2021/07/07 09:42:37;;;;;;;3.12;2.37;;;;;;;34.50;32.62;100143.75;2121762;83;34155;-60
2021/07/07 09:45:46;;;;;;;4.70;2.27;;;;;;;34.48;32.90;100144.00;2132391;80;29173;-69
2021/07/07 09:48:50;;;;;;;5.05;2.17;;;;;;;34.50;32.94;100140.97;2117294;83;27714;-65
2021/07/07 09:51:53;;;;;;;2.65;2.12;;;;;;;34.44;32.96;100148.34;2114773;84;30173;-74
2021/07/07 09:54:57;;;;;;;5.00;2.30;;;;;;;34.32;33.15;100153.00;2133595;80;30793;-63
2021/07/07 09:58:00;;;;;;;2.42;2.22;;;;;;;34.19;33.32;100161.00;2188360;81;32107;-71
2021/07/07 10:01:02;;;;;;;6.08;2.75;;;;;;;34.03;33.51;100165.27;2166866;81;29872;-60
2021/07/07 10:04:05;;;;;;;4.83;2.60;;;;;;;34.10;33.96;100164.65;2188877;81;27858;-62
2021/07/07 10:07:08;;;;;;;2.55;2.35;;;;;;;34.33;33.77;100172.22;2135454;80;29465;-60
2021/07/07 10:10:13;;;;;;;4.50;2.77;;;;;;;34.39;33.57;100175.45;2131284;83;32006;-68
2021/07/07 10:13:15;;;;;;;5.72;2.37;;;;;;;34.48;33.70;100177.91;2131139;83;33728;-61
2021/07/07 10:16:17;;;;;;;3.72;2.75;;;;;;;34.56;33.45;100177.58;2169336;81;30010;-61
2021/07/07 10:19:21;;;;;;;6.95;2.20;;;;;;;34.75;33.81;100176.94;2191309;81;27660;-60
2021/07/07 10:22:23;;;;;;;2.80;2.22;;;;;;;34.87;33.87;100175.56;2191617;81;28733;-61
2021/07/07 10:25:28;;;;;;;8.23;2.50;;;;;;;35.05;33.56;100178.80;2171775;81;32227;-61
2021/07/07 10:28:32;;;;;;;5.12;2.05;;;;;;;35.14;33.33;100179.27;2134849;82;33777;-60
2021/07/07 10:31:59;;;;;;;4.75;2.75;;;;;;;35.26;33.28;100169.53;2134510;83;29796;-61
2021/07/07 10:35:08;;;;;;;7.42;2.87;;;;;;;35.25;33.25;100172.01;2134660;82;27744;-60
2021/07/07 10:38:11;;;;;;;2.65;2.30;;;;;;;35.11;33.06;100179.23;2169566;81;28690;-65
2021/07/07 10:41:12;;;;;;;4.97;3.22;;;;;;;35.02;33.31;100184.01;2169574;81;32242;-61
2021/07/07 10:44:29;;;;;;;9.95;2.52;;;;;;;34.93;33.31;100187.14;2191174;81;34011;-61
2021/07/07 10:47:36;;;;;;;2.62;2.42;;;;;;;34.86;33.31;100181.35;2177745;80;29074;-60
2021/07/07 10:50:39;;;;;;;5.87;2.40;;;;;;;34.80;33.28;100187.34;2135078;83;27796;-61
2021/07/07 10:53:41;;;;;;;5.97;2.67;;;;;;;34.71;33.11;100182.67;2135205;83;28268;-63
2021/07/07 10:56:46;;;;;;;9.23;2.70;;;;;;;34.62;33.45;100191.08;2134942;83;31849;-61
2021/07/07 10:59:50;;;;;;;5.58;2.92;;;;;;;34.63;33.29;100185.81;2193216;81;34089;-61
2021/07/07 11:02:55;;;;;;;;;;;;;;;34.60;33.39;100194.08;2179019;81;29134;-61
2021/07/07 11:05:57;;;;;;;6.10;2.12;;;;;;;34.61;33.44;100190.20;2184709;81;27718;-61
2021/07/07 11:09:15;;;;;;;4.20;2.10;;;;;;;34.50;33.66;100194.66;2145529;81;29820;-63
2021/07/07 11:12:17;;;;;;;2.55;1.95;;;;;;;34.52;33.40;100193.88;2144964;82;31051;-68
2021/07/07 11:15:25;;;;;;;5.00;2.15;;;;;;;34.46;33.85;100194.85;2144949;83;33788;-64
2021/07/07 11:18:30;;;;;;;2.62;2.27;;;;;;;34.39;33.55;100198.23;2161731;81;29211;-60
2021/07/07 11:21:32;;;;;;;3.37;2.00;;;;;;;34.27;33.82;100189.01;2176469;81;27712;-60
2021/07/07 11:24:35;;;;;;;6.33;2.45;;;;;;;34.17;33.88;100189.02;2197614;80;29931;-60
2021/07/07 11:27:38;;;;;;;4.07;1.83;;;;;;;34.09;34.10;100202.70;2159113;81;31027;-60
2021/07/07 11:30:40;;;;;;;5.97;1.80;;;;;;;33.96;34.14;100207.62;2205811;80;33949;-60
2021/07/07 11:33:42;;;;;;;9.60;2.50;;;;;;;33.73;34.28;100210.01;2184669;81;30342;-59
2021/07/07 11:36:44;;;;;;;7.70;1.82;;;;;;;33.50;34.48;100218.17;2185088;81;27703;-60
2021/07/07 11:40:11;;;;;;;7.75;1.72;;;;;;;33.26;34.65;100222.14;2184634;81;28655;-60
2021/07/07 11:43:24;;;;;;;10.43;2.10;;;;;;;33.06;35.12;100238.44;2184968;81;31898;-60
2021/07/07 11:46:31;;;;;;;7.00;1.87;;;;;;;32.85;35.26;100234.11;2181893;81;33637;-70
2021/07/07 11:49:31;;;;;;;10.13;2.05;;;;;;;32.50;35.43;100247.05;2171025;82;30410;-66
2021/07/07 11:52:33;;;;;;;7.72;2.05;;;;;;;32.11;35.76;100245.59;2170542;82;27654;-68
2021/07/07 11:55:58;;;;;;;8.95;3.00;;;;;;;31.87;36.39;100253.60;2148031;82;29858;-69
2021/07/07 11:59:03;;;;;;;10.50;2.15;;;;;;;31.59;36.52;100253.86;2151697;82;31007;-69
2021/07/07 12:02:05;;;;;;;5.62;2.60;;;;;;;31.41;37.11;100254.55;2133767;83;34183;-64
2021/07/07 12:05:08;;;;;;;6.78;2.37;;;;;;;31.15;37.28;100260.41;2120874;81;30143;-73
2021/07/07 12:08:20;;;;;;;5.20;1.95;;;;;;;30.92;37.61;100268.58;2112343;83;28222;-69
2021/07/07 12:11:25;;;;;;;12.63;2.37;;;;;;;30.72;37.89;100281.84;2171995;81;29915;-68
2021/07/07 12:14:30;;;;;;;4.85;2.00;;;;;;;30.56;38.18;100294.68;2191045;81;31100;-71
2021/07/07 12:17:32;;;;;;;4.17;2.05;;;;;;;30.41;38.10;100302.58;2178963;81;33214;-66
2021/07/07 12:20:35;;;;;;;2.40;1.90;;;;;;;30.23;38.21;100298.98;2132658;82;30059;-71
2021/07/07 12:23:47;;;;;;;9.83;2.37;;;;;;;30.09;38.35;100300.86;2153441;82;27606;-64
2021/07/07 12:26:57;;;;;;;7.87;2.15;;;;;;;29.96;38.64;100306.30;2153379;82;28675;-70
2021/07/07 12:29:59;;;;;;;7.37;2.15;;;;;;;30.01;38.95;100312.07;2117196;84;31203;-70
2021/07/07 12:33:03;;;;;;;5.62;2.50;;;;;;;30.03;38.96;100311.34;2073289;84;34157;-69
2021/07/07 12:36:06;;;;;;;3.73;2.00;;;;;;;30.09;39.21;100317.95;2117322;84;29063;-66
2021/07/07 12:39:25;;;;;;;8.17;2.57;;;;;;;30.11;39.16;100326.89;2169666;81;27737;-69
2021/07/07 12:42:39;;;;;;;5.72;1.72;;;;;;;30.10;38.95;100324.67;2190910;81;29653;-73
2021/07/07 12:45:40;;;;;;;4.23;2.27;;;;;;;30.08;39.16;100332.82;2155346;81;31264;-73
2021/07/07 12:48:55;;;;;;;8.43;2.30;;;;;;;30.00;39.00;100346.27;2139926;82;34124;-66
2021/07/07 12:52:20;;;;;;;3.98;2.40;;;;;;;29.92;39.21;100353.33;2128021;81;30561;-72
2021/07/07 12:55:25;;;;;;;3.42;1.70;;;;;;;29.88;39.07;100357.54;2117791;84;27690;-69
2021/07/07 12:58:27;;;;;;;6.03;1.92;;;;;;;29.89;39.29;100374.44;2118979;83;28646;-68
2021/07/07 13:01:29;;;;;;;4.65;2.02;;;;;;;29.91;39.15;100377.86;2151953;81;31005;-67
2021/07/07 13:04:33;;;;;;;5.15;2.00;;;;;;;29.83;39.12;100378.87;2139578;83;33007;-68
2021/07/07 13:07:35;;;;;;;5.60;1.90;;;;;;;29.63;39.19;100375.94;2139719;82;28772;-64
2021/07/07 13:10:42;;;;;;;4.30;1.90;;;;;;;29.59;39.42;100371.89;2137954;83;28301;-71
2021/07/07 13:13:44;;;;;;;4.70;1.80;;;;;;;29.41;39.51;100379.59;2140203;81;28654;-72
2021/07/07 13:16:51;;;;;;;3.47;2.25;;;;;;;29.25;39.85;100379.83;2191017;81;30351;-73
2021/07/07 13:20:01;;;;;;;3.40;1.85;;;;;;;29.17;40.23;100378.59;2159374;81;33773;-73
2021/07/07 13:23:04;;;;;;;3.95;2.15;;;;;;;29.15;40.47;100371.88;2152831;82;29336;-61
2021/07/07 13:26:25;;;;;;;4.22;1.98;;;;;;;29.14;40.87;100371.55;2157599;81;27627;-74
2021/07/07 13:29:51;;;;;;;4.60;2.40;;;;;;;29.14;40.81;100387.27;2170103;81;28648;-67
2021/07/07 13:32:54;;;;;;;3.62;2.02;;;;;;;29.08;40.75;100386.15;2190904;81;31041;-61
2021/07/07 13:35:57;;;;;;;9.40;2.22;;;;;;;29.00;40.80;100395.91;2187492;81;34188;-69
2021/07/07 13:39:11;;;;;;;3.50;2.00;;;;;;;28.85;40.91;100392.68;2119083;84;29379;-67
2021/07/07 13:42:16;;;;;;;5.92;2.27;;;;;;;28.50;40.83;100406.22;2119581;81;27728;-73
2021/07/07 13:45:21;;;;;;;4.65;1.85;;;;;;;28.21;41.39;100409.32;2076333;85;29763;-67
2021/07/07 13:48:26;;;;;;;5.20;2.37;;;;;;;27.97;41.83;100419.52;2155475;81;31032;-65
2021/07/07 13:51:33;;;;;;;4.15;2.02;;;;;;;27.77;42.01;100410.11;2167209;81;32989;-64
2021/07/07 13:54:37;;;;;;;3.30;2.20;;;;;;;27.75;42.48;100406.15;2156339;82;29354;-71
2021/07/07 13:57:42;;;;;;;3.50;1.77;;;;;;;27.80;42.72;100402.33;2140104;81;27637;-70
2021/07/07 14:00:45;;;;;;;6.05;1.70;;;;;;;27.92;42.60;100410.12;2142889;83;28737;-69
2021/07/07 14:03:49;;;;;;;3.30;1.55;;;;;;;27.90;42.33;100408.94;2142821;82;31531;-74
2021/07/07 14:06:54;;;;;;;;;;;;;;;27.73;42.13;100408.23;2133532;81;32693;-73
2021/07/07 14:09:56;;;;;;;3.17;1.45;;;;;;;27.66;42.43;100408.12;2122429;82;29327;-64
2021/07/07 14:13:01;;;;;;;2.72;1.75;;;;;;;27.62;42.24;100413.69;2122027;83;27768;-68
2021/07/07 14:16:05;;;;;;;2.40;1.50;;;;;;;27.40;42.27;100412.11;2146743;81;29641;-64
2021/07/07 14:19:10;;;;;;;1.50;1.37;;;;;;;27.20;42.36;100431.01;2193917;81;31026;-62
2021/07/07 14:22:15;;;;;;;6.15;1.50;;;;;;;27.09;42.39;100438.28;2194134;81;33039;-69
2021/07/07 14:25:20;;;;;;;4.47;1.50;;;;;;;26.98;42.61;100443.16;2192017;81;29356;-64
2021/07/07 14:28:23;;;;;;;;;;;;;;;26.96;42.72;100451.27;2124928;83;27702;-72
2021/07/07 14:31:27;;;;;;;3.08;1.67;;;;;;;26.86;42.81;100445.11;2121948;82;29517;-72
2021/07/07 14:34:30;;;;;;;2.62;1.70;;;;;;;26.76;42.89;100445.30;2102203;83;31123;-70
2021/07/07 14:37:33;;;;;;;4.12;1.30;;;;;;;26.65;43.02;100429.55;2122124;83;33118;-66
2021/07/07 14:40:36;;;;;;;4.53;1.50;;;;;;;26.49;42.98;100436.50;2165267;81;30120;-71
2021/07/07 14:43:39;;;;;;;2.52;1.32;;;;;;;26.37;43.22;100438.77;2194834;81;27603;-74
2021/07/07 14:46:43;;;;;;;3.00;1.17;;;;;;;26.26;43.28;100439.15;2194680;81;28678;-69
2021/07/07 14:49:46;;;;;;;3.60;1.25;;;;;;;26.09;43.52;100440.53;2204093;80;31170;-61
2021/07/07 14:52:49;;;;;;;4.35;1.42;;;;;;;25.93;43.90;100442.27;2167745;80;33099;-73
2021/07/07 14:55:52;;;;;;;5.08;1.40;;;;;;;25.81;43.95;100446.91;2128534;83;29377;-63
2021/07/07 14:58:55;;;;;;;3.47;1.42;;;;;;;25.72;44.33;100444.69;2128865;83;27708;-71
2021/07/07 15:01:58;;;;;;;6.42;1.62;;;;;;;25.58;44.29;100446.22;2141698;80;29913;-65
2021/07/07 15:05:04;;;;;;;3.02;1.40;;;;;;;25.43;44.54;100454.28;2198621;80;30977;-60
2021/07/07 15:08:10;;;;;;;3.83;1.62;;;;;;;25.34;44.87;100451.48;2168489;80;32967;-60
2021/07/07 15:11:17;;;;;;;2.55;1.50;;;;;;;25.27;45.19;100464.67;2198422;80;29354;-60
2021/07/07 15:14:28;;;;;;;4.53;1.55;;;;;;;25.16;45.42;100465.34;2198212;80;27943;-61
2021/07/07 15:17:37;;;;;;;3.08;2.10;;;;;;;25.09;45.66;100478.00;2197805;80;28673;-62
2021/07/07 15:20:43;;;;;;;8.23;4.85;;;;;;;25.07;45.76;100473.72;2197954;80;31016;-66
2021/07/07 15:23:48;;;;;;;2.00;1.32;;;;;;;25.02;45.94;100481.92;2198264;80;33037;-61
2021/07/07 15:27:08;;;;;;;7.58;2.12;;;;;;;24.99;45.93;100482.25;2198465;80;29340;-60
2021/07/07 15:30:08;;;;;;;1.85;1.25;;;;;;;25.01;46.08;100483.47;2190614;80;28072;-61
2021/07/07 15:39:58;;;;;;;3.02;1.47;;;;;;;24.90;46.01;100477.78;2044778;83;29616;-62
2021/07/07 15:43:03;;;;;;;5.83;1.42;;;;;;;24.94;45.99;100479.66;2108864;83;29415;-63
2021/07/07 15:46:10;;;;;;;7.13;1.53;;;;;;;24.88;45.70;100466.99;2123007;81;27686;-62
2021/07/07 15:49:12;;;;;;;4.60;1.52;;;;;;;24.83;45.75;100478.08;2122100;83;29417;-67
2021/07/07 15:52:14;;;;;;;3.60;1.20;;;;;;;24.78;45.83;100474.47;2126539;81;31028;-65
2021/07/07 15:55:16;;;;;;;2.67;1.30;;;;;;;24.66;45.88;100484.83;2122596;83;33054;-64
2021/07/07 15:58:18;;;;;;;3.12;1.27;;;;;;;24.53;46.14;100496.26;2123602;83;30535;-62
2021/07/07 16:01:22;;;;;;;2.92;1.32;;;;;;;24.35;46.48;100491.36;2182609;81;27710;-67
2021/07/07 16:04:24;;;;;;;1.77;1.50;;;;;;;24.19;46.56;100489.36;2146820;81;28834;-61